Terminal Aerodrome Forecast
Issued by NWS Tulsa, OK

Home | Current Version | Previous Version | Text Only | Print | Product List | Glossary On
Versions: 1 2 3 4 5 6 7 8 9 10 11 12 13
000
FTUS44 KTSA 251700
TAFTUL
TAF
KTUL 251720Z 2518/2618 27010G18KT P6SM SKC
     FM260000 32007KT P6SM SCT250
     FM260300 01007KT P6SM SCT250
     FM261100 03008KT P6SM BKN012
     FM261500 05012KT P6SM BKN012=

USA.gov is the U.S. government's official web portal to all federal, state and local government web resources and services.